Time;durP1;ratioP1;P1;durP2;ratioP2;P2;SDS_P1;SDS_P2;PMS_P1;PMS_P2;Temp;Humidity;BMP_temperature;BMP_pressure;BME280_temperature;BME280_humidity;BME280_pressure;Samples;Min_cycle;Max_cycle;Signal;HPM_P1;HPM_P2
2022/11/01 00:01:56;;;;;;;241.88;147.18;;;;;;;22.76;68.81;98863.19;4863140;29;20059;-59
2022/11/01 00:04:46;;;;;;;246.70;148.88;;;;;;;22.86;68.57;98861.13;4874972;29;20056;-60
2022/11/01 00:07:28;;;;;;;244.65;147.25;;;;;;;22.71;68.79;98863.25;4874818;29;20088;-59
2022/11/01 00:10:17;;;;;;;239.88;142.18;;;;;;;22.82;68.42;98872.97;4856204;29;20439;-59
2022/11/01 00:13:05;;;;;;;229.57;140.65;;;;;;;22.88;68.20;98867.13;4857009;29;20140;-59
2022/11/01 00:15:55;;;;;;;237.10;138.85;;;;;;;22.98;67.92;98870.84;4856755;29;20117;-60
2022/11/01 00:18:37;;;;;;;222.90;135.10;;;;;;;22.62;68.57;98871.25;4860558;29;20384;-60
2022/11/01 00:21:27;;;;;;;219.40;136.57;;;;;;;22.66;68.51;98869.56;4856266;29;20090;-60
2022/11/01 00:24:09;;;;;;;222.00;135.88;;;;;;;22.83;68.16;98864.47;4856811;29;20698;-60
2022/11/01 00:26:58;;;;;;;210.10;129.68;;;;;;;22.77;68.54;98865.63;4863343;29;20068;-59
2022/11/01 00:29:47;;;;;;;221.57;130.55;;;;;;;22.66;68.81;98885.97;4861157;29;20064;-57
2022/11/01 00:32:30;;;;;;;208.88;127.35;;;;;;;22.82;68.20;98881.97;4858410;29;20463;-59
2022/11/01 00:35:25;;;;;;;211.10;126.18;;;;;;;22.77;68.42;98878.47;4866532;29;20080;-60
2022/11/01 00:38:15;;;;;;;211.85;128.95;;;;;;;22.79;68.46;98885.28;4877246;29;20385;-59
2022/11/01 00:40:58;;;;;;;195.80;122.72;;;;;;;22.99;68.09;98883.44;4888554;29;20055;-61
2022/11/01 00:43:47;;;;;;;194.60;123.22;;;;;;;22.80;68.05;98883.38;4892094;29;20056;-58
2022/11/01 00:46:29;;;;;;;194.55;122.85;;;;;;;22.69;68.42;98885.41;4893427;29;20544;-61
2022/11/01 00:49:24;;;;;;;188.32;120.22;;;;;;;22.32;69.36;98886.88;4880979;29;20052;-59
2022/11/01 00:51:59;;;;;;;197.00;120.57;;;;;;;22.40;68.84;98893.63;4893458;29;20788;-60
2022/11/01 00:54:48;;;;;;;198.73;118.93;;;;;;;22.48;68.68;98891.06;4893157;29;20052;-60
2022/11/01 00:57:31;;;;;;;191.27;114.88;;;;;;;22.54;68.29;98888.28;4892612;29;20139;-58
2022/11/01 01:00:20;;;;;;;189.90;115.40;;;;;;;22.58;68.05;98884.69;4892030;29;20052;-60
2022/11/01 01:03:02;;;;;;;182.00;115.60;;;;;;;22.51;68.42;98886.13;4892825;29;20548;-60
2022/11/01 01:05:59;;;;;;;181.90;110.90;;;;;;;22.77;67.65;98882.03;4880568;29;20057;-60
2022/11/01 01:08:34;;;;;;;197.60;117.07;;;;;;;22.73;67.61;98880.97;4891596;29;20068;-62
2022/11/01 01:11:23;;;;;;;189.57;115.50;;;;;;;22.71;67.33;98888.66;4885674;29;20071;-61
2022/11/01 01:14:13;;;;;;;187.60;113.65;;;;;;;22.77;67.19;98886.69;4873998;29;20144;-61
2022/11/01 01:17:09;;;;;;;185.27;113.97;;;;;;;22.73;67.29;98897.41;4874101;29;20049;-60
2022/11/01 01:19:44;;;;;;;183.98;114.80;;;;;;;22.80;66.61;98895.13;4874318;29;20147;-61
2022/11/01 01:22:34;;;;;;;189.10;111.00;;;;;;;22.71;66.78;98893.34;4876803;29;20766;-59
2022/11/01 01:25:18;;;;;;;185.48;109.28;;;;;;;22.71;67.39;98898.81;4873598;29;20100;-61
2022/11/01 01:28:08;;;;;;;178.82;109.28;;;;;;;22.41;67.23;98901.56;4892169;29;20056;-59
2022/11/01 01:30:58;;;;;;;176.52;104.10;;;;;;;22.66;67.45;98899.66;4891100;29;20140;-60
2022/11/01 01:33:40;;;;;;;174.32;105.10;;;;;;;22.62;67.25;98901.34;4892456;29;20053;-60
2022/11/01 01:36:35;;;;;;;164.70;102.63;;;;;;;22.64;66.99;98910.06;4881231;29;20140;-59
2022/11/01 01:39:10;;;;;;;174.75;104.15;;;;;;;22.40;67.87;98905.38;4873385;29;20056;-59
2022/11/01 01:42:03;;;;;;;174.32;107.07;;;;;;;22.64;66.77;98916.38;4873789;29;20060;-59
2022/11/01 01:44:55;;;;;;;174.10;102.68;;;;;;;22.68;67.23;98916.63;4876716;29;20460;-59
2022/11/01 01:47:48;;;;;;;167.30;98.97;;;;;;;22.00;68.79;98918.25;4873408;29;20072;-60
2022/11/01 01:50:30;;;;;;;165.68;101.82;;;;;;;22.31;68.94;98918.03;4873143;29;20060;-60
2022/11/01 01:53:22;;;;;;;166.30;100.60;;;;;;;22.60;67.40;98920.78;4873114;29;20065;-60
2022/11/01 01:56:16;;;;;;;165.68;99.15;;;;;;;22.68;67.69;98922.91;4878483;29;20053;-60
2022/11/01 01:59:15;;;;;;;166.40;99.60;;;;;;;22.56;67.60;98921.66;4872966;29;20482;-59
2022/11/01 02:02:04;;;;;;;163.32;96.63;;;;;;;22.60;67.39;98931.72;4875621;29;20459;-60
2022/11/01 02:05:04;;;;;;;164.07;96.05;;;;;;;22.74;66.74;98934.59;4892143;29;20052;-60
2022/11/01 02:07:46;;;;;;;160.57;96.05;;;;;;;22.82;66.78;98936.72;4872825;29;20087;-60
2022/11/01 02:10:37;;;;;;;149.05;92.38;;;;;;;22.34;68.00;98944.81;4876370;29;20060;-60
2022/11/01 02:13:19;;;;;;;172.07;98.38;;;;;;;22.61;67.72;98947.03;4891581;29;20048;-60
2022/11/01 02:16:13;;;;;;;161.82;95.57;;;;;;;22.88;66.98;98943.75;4882694;29;20053;-55
2022/11/01 02:19:16;;;;;;;149.82;93.50;;;;;;;22.85;67.29;98947.09;4878429;29;20128;-61
2022/11/01 02:22:17;;;;;;;157.77;97.30;;;;;;;23.08;66.33;98947.41;4891220;29;20065;-60
2022/11/01 02:25:36;;;;;;;163.15;96.50;;;;;;;23.01;65.87;98957.88;4891055;29;20044;-60
2022/11/01 02:28:36;;;;;;;159.15;95.85;;;;;;;23.10;66.15;98961.66;4890704;29;20167;-60
2022/11/01 02:31:30;;;;;;;152.75;94.90;;;;;;;23.31;65.18;98964.13;4891166;29;20057;-61
2022/11/01 02:34:36;;;;;;;154.73;94.55;;;;;;;22.90;66.88;98984.53;4855906;29;20068;-60
2022/11/01 02:37:36;;;;;;;156.98;96.07;;;;;;;23.16;65.87;98976.91;4863850;29;20064;-60
2022/11/01 02:40:41;;;;;;;165.02;96.70;;;;;;;23.01;66.00;98985.25;4855185;29;20053;-60
2022/11/01 02:43:36;;;;;;;154.98;94.18;;;;;;;23.27;65.20;98983.06;4854089;29;20363;-61
2022/11/01 02:49:37;;;;;;;162.20;95.70;;;;;;;23.42;64.46;98998.50;4855826;29;20076;-60
2022/11/01 02:52:30;;;;;;;161.30;95.50;;;;;;;23.21;65.06;98989.72;4853079;29;20064;-61
2022/11/01 02:55:29;;;;;;;156.52;95.65;;;;;;;23.00;65.68;99002.75;4855847;29;20367;-60
2022/11/01 02:58:28;;;;;;;159.48;95.18;;;;;;;23.41;64.52;99016.06;4861941;29;20061;-60
2022/11/01 03:01:15;;;;;;;167.00;98.88;;;;;;;23.57;64.19;99011.22;4856267;29;20064;-61
2022/11/01 03:04:06;;;;;;;207.93;97.78;;;;;;;23.28;65.11;99023.03;4853243;29;20422;-61
2022/11/01 03:06:56;;;;;;;161.90;93.03;;;;;;;23.59;65.05;99018.03;4853271;29;20052;-60
2022/11/01 03:09:46;;;;;;;156.45;94.88;;;;;;;23.55;64.45;99014.25;4863548;29;20045;-61
2022/11/01 03:12:34;;;;;;;164.15;95.35;;;;;;;23.79;63.20;99018.94;4861038;29;21025;-58
2022/11/01 03:15:38;;;;;;;168.20;95.55;;;;;;;23.73;63.73;99023.63;4851712;29;20069;-61
2022/11/01 03:18:34;;;;;;;163.27;96.10;;;;;;;23.97;62.55;99029.09;4852974;29;20065;-60
2022/11/01 03:21:31;;;;;;;158.88;94.82;;;;;;;23.68;62.98;99020.13;4853197;29;20061;-61
2022/11/01 03:24:26;;;;;;;164.77;97.22;;;;;;;23.99;63.19;99020.56;4870881;29;20053;-61
2022/11/01 03:27:28;;;;;;;165.10;96.55;;;;;;;24.02;62.36;99012.56;4863459;29;20563;-61
2022/11/01 03:30:17;;;;;;;162.13;97.97;;;;;;;24.10;61.92;99015.78;4852974;29;20129;-59
2022/11/01 03:33:06;;;;;;;170.60;97.88;;;;;;;24.15;62.63;99023.91;4860660;29;20070;-61
2022/11/01 03:35:51;;;;;;;154.27;94.75;;;;;;;24.13;62.52;99023.38;4881756;28;20063;-60
2022/11/01 03:38:47;;;;;;;162.25;98.10;;;;;;;24.22;62.61;99025.16;4871589;29;20061;-60
2022/11/01 03:41:34;;;;;;;156.30;95.88;;;;;;;24.42;61.47;99023.25;4871514;29;20116;-59
2022/11/01 03:44:25;;;;;;;171.00;97.93;;;;;;;24.59;61.35;99030.94;4889777;29;20072;-59
2022/11/01 03:47:08;;;;;;;165.20;98.57;;;;;;;24.55;60.39;99030.75;4890757;29;20060;-60
2022/11/01 03:50:18;;;;;;;183.10;105.65;;;;;;;24.08;61.64;99039.94;4882027;29;20080;-61
2022/11/01 03:53:07;;;;;;;169.48;100.55;;;;;;;24.74;59.64;99038.94;4884342;29;20062;-61
2022/11/01 03:55:57;;;;;;;184.20;104.90;;;;;;;24.61;60.14;99036.94;4890245;29;20060;-60
2022/11/01 03:58:43;;;;;;;169.07;103.40;;;;;;;24.96;59.08;99040.25;4890266;29;20067;-61
2022/11/01 04:01:32;;;;;;;170.40;104.75;;;;;;;25.12;58.94;99041.56;4886891;29;20537;-60
2022/11/01 04:04:28;;;;;;;170.13;102.05;;;;;;;25.46;59.05;99043.19;4873927;29;20132;-60
2022/11/01 04:07:03;;;;;;;174.02;110.53;;;;;;;25.57;57.71;99049.31;4866978;29;20056;-61
2022/11/01 04:09:59;;;;;;;178.50;110.82;;;;;;;25.75;58.36;99048.38;4871564;29;20059;-62
2022/11/01 04:12:34;;;;;;;186.25;111.28;;;;;;;25.85;56.27;99052.84;4870988;29;20080;-63
2022/11/01 04:21:38;;;;;;;209.35;119.85;;;;;;;25.71;55.99;99054.78;4869387;29;20556;-62
2022/11/01 04:24:20;;;;;;;199.38;119.05;;;;;;;26.11;56.43;99049.59;4870730;29;20049;-63
2022/11/01 04:27:08;;;;;;;206.57;122.03;;;;;;;25.73;56.20;99055.31;4875535;29;20053;-64
2022/11/01 04:29:51;;;;;;;198.25;120.80;;;;;;;26.34;56.38;99048.50;4876512;29;20052;-62
2022/11/01 04:32:43;;;;;;;203.02;124.95;;;;;;;26.28;54.76;99052.50;4868900;29;20060;-63
2022/11/01 04:35:26;;;;;;;204.07;125.80;;;;;;;26.33;56.39;99057.91;4867813;29;21232;-63
2022/11/01 04:38:22;;;;;;;214.77;129.38;;;;;;;26.45;55.44;99057.34;4873287;29;20045;-63
2022/11/01 04:40:57;;;;;;;219.52;129.57;;;;;;;26.44;53.66;99052.16;4872206;29;20287;-63
2022/11/01 04:43:46;;;;;;;212.45;130.73;;;;;;;26.49;54.70;99047.34;4872410;29;20081;-64
2022/11/01 04:46:30;;;;;;;215.70;128.30;;;;;;;26.44;53.82;99052.16;4874781;29;20060;-62
2022/11/01 04:49:20;;;;;;;233.80;134.65;;;;;;;26.61;53.27;99052.31;4868792;29;20133;-62
2022/11/01 04:52:02;;;;;;;216.93;130.15;;;;;;;26.97;52.70;99047.88;4873550;29;20128;-63
2022/11/01 04:54:50;;;;;;;216.93;127.05;;;;;;;27.17;50.73;99043.75;4872732;29;20542;-63
2022/11/01 04:57:33;;;;;;;208.63;125.35;;;;;;;26.78;50.16;99039.81;4871587;29;20048;-63
2022/11/01 05:00:22;;;;;;;207.88;125.03;;;;;;;27.00;49.44;99045.31;4874401;29;20143;-63
2022/11/01 05:03:16;;;;;;;207.38;127.40;;;;;;;27.47;51.04;99051.22;4875330;29;20061;-63
2022/11/01 05:06:05;;;;;;;199.85;124.95;;;;;;;27.72;52.56;99055.25;4873361;29;20052;-63
2022/11/01 05:08:48;;;;;;;205.55;123.15;;;;;;;27.58;50.24;99050.97;4873478;29;20060;-63
2022/11/01 05:11:37;;;;;;;209.15;121.97;;;;;;;27.67;49.71;99049.06;4868201;29;20429;-63
2022/11/01 05:14:19;;;;;;;204.70;120.20;;;;;;;27.38;49.42;99042.13;4868847;29;20112;-64
2022/11/01 05:17:15;;;;;;;183.32;114.53;;;;;;;27.84;47.27;99037.25;4869255;29;20113;-57
2022/11/01 05:19:50;;;;;;;191.60;117.68;;;;;;;28.09;47.94;99036.53;4872188;29;20149;-64
2022/11/01 05:22:46;;;;;;;186.68;118.70;;;;;;;28.26;47.48;99027.44;4879488;29;20053;-64
2022/11/01 05:25:21;;;;;;;188.70;117.88;;;;;;;28.27;51.39;99023.53;4870114;29;20061;-63
2022/11/01 05:28:15;;;;;;;206.57;119.43;;;;;;;28.47;50.72;99032.31;4871286;29;20930;-66
2022/11/01 05:31:04;;;;;;;193.23;120.20;;;;;;;28.67;50.10;99023.38;4874440;29;20108;-67
2022/11/01 05:33:45;;;;;;;194.68;121.05;;;;;;;28.27;50.55;99018.03;4855412;29;20059;-68
2022/11/01 05:36:42;;;;;;;199.00;116.82;;;;;;;28.64;48.65;99017.72;4862908;29;20056;-65
2022/11/01 05:39:17;;;;;;;183.63;115.53;;;;;;;28.86;50.48;99005.66;4869830;29;20132;-66
2022/11/01 05:42:05;;;;;;;200.15;114.65;;;;;;;29.01;45.09;99009.84;4883232;29;20057;-68
2022/11/01 05:44:48;;;;;;;196.43;115.55;;;;;;;29.04;48.50;99004.47;4870591;29;20067;-67
2022/11/01 05:47:39;;;;;;;196.40;114.68;;;;;;;29.08;49.53;99002.69;4869243;29;20061;-65
2022/11/01 05:50:28;;;;;;;183.82;110.20;;;;;;;29.29;49.78;98990.91;4873210;29;20053;-66
2022/11/01 05:53:11;;;;;;;;;;;;;;;28.96;46.02;98994.25;4885469;29;20105;-66
2022/11/01 05:56:03;;;;;;;176.30;103.20;;;;;;;28.92;45.20;98982.22;4871340;29;19931;-66
2022/11/01 05:58:46;;;;;;;167.20;98.88;;;;;;;29.20;44.77;98990.16;4856752;29;20057;-65
2022/11/01 06:01:35;;;;;;;174.38;102.07;;;;;;;29.33;45.76;98980.81;4870437;29;20730;-67
2022/11/01 06:04:17;;;;;;;178.52;104.63;;;;;;;29.30;46.08;98975.94;4864867;29;20049;-67
2022/11/01 06:07:06;;;;;;;167.57;100.93;;;;;;;29.61;48.56;98980.34;4880853;29;20060;-68
2022/11/01 06:09:47;;;;;;;160.75;99.63;;;;;;;29.78;47.17;98969.19;4872176;29;20067;-66
2022/11/01 06:12:37;;;;;;;156.45;98.75;;;;;;;29.25;43.94;98963.13;4871821;29;20153;-67
2022/11/01 06:15:25;;;;;;;156.50;95.63;;;;;;;29.56;45.41;98961.16;4873467;29;20064;-65
2022/11/01 06:18:20;;;;;;;162.70;96.28;;;;;;;29.50;47.04;98956.97;4881942;29;20160;-63
2022/11/01 06:21:01;;;;;;;154.38;97.60;;;;;;;29.33;45.57;98952.34;4891249;29;20068;-66
2022/11/01 06:23:55;;;;;;;157.18;93.47;;;;;;;29.67;45.04;98940.28;4871219;29;20053;-65
2022/11/01 06:26:37;;;;;;;148.27;96.35;;;;;;;29.77;44.92;98939.94;4873369;29;20061;-65
2022/11/01 06:29:26;;;;;;;158.00;95.63;;;;;;;29.86;44.25;98940.66;4871390;29;20254;-65
2022/11/01 06:32:08;;;;;;;142.13;92.32;;;;;;;29.73;44.32;98930.69;4870535;29;20052;-62
2022/11/01 06:34:57;;;;;;;152.35;91.47;;;;;;;29.92;44.01;98923.84;4869546;29;20052;-64
2022/11/01 06:37:39;;;;;;;142.55;86.32;;;;;;;29.90;42.06;98924.19;4876161;29;20063;-63
2022/11/01 06:40:28;;;;;;;131.10;85.13;;;;;;;30.02;46.75;98917.94;4871246;29;20143;-62
2022/11/01 06:43:23;;;;;;;138.75;87.80;;;;;;;30.22;46.27;98907.97;4871685;29;20106;-64
2022/11/01 06:45:59;;;;;;;152.80;87.75;;;;;;;30.16;45.46;98909.34;4870627;29;20053;-62
2022/11/01 06:48:48;;;;;;;132.07;85.00;;;;;;;30.15;44.83;98907.69;4885361;29;20076;-64
2022/11/01 06:51:31;;;;;;;129.85;83.50;;;;;;;30.34;44.27;98896.16;4878705;29;20049;-65
2022/11/01 06:54:19;;;;;;;149.07;91.53;;;;;;;29.73;42.78;98891.97;4887885;29;20092;-63
2022/11/01 06:57:01;;;;;;;139.90;88.20;;;;;;;30.19;43.47;98890.09;4870731;29;20072;-65
2022/11/01 06:59:50;;;;;;;141.65;88.82;;;;;;;29.68;41.92;98892.13;4860010;29;20052;-66
2022/11/01 07:02:40;;;;;;;138.52;85.03;;;;;;;29.62;43.12;98866.63;4870703;29;20136;-67
2022/11/01 07:05:21;;;;;;;134.80;84.25;;;;;;;30.23;43.82;98876.38;4875238;29;20056;-64
2022/11/01 07:08:19;;;;;;;135.35;85.95;;;;;;;30.31;42.06;98872.72;4871810;29;20056;-65
2022/11/01 07:11:07;;;;;;;147.65;87.45;;;;;;;30.31;41.48;98874.69;4876189;29;20131;-65
2022/11/01 07:13:50;;;;;;;140.30;87.43;;;;;;;30.39;40.45;98869.06;4890527;29;20048;-66
2022/11/01 07:16:38;;;;;;;147.85;87.78;;;;;;;30.21;41.40;98868.41;4890321;29;20518;-67
2022/11/01 07:19:22;;;;;;;146.27;85.28;;;;;;;30.48;43.15;98868.97;4861120;29;20294;-67
2022/11/01 07:22:10;;;;;;;136.45;86.93;;;;;;;30.53;42.08;98865.97;4867707;29;20048;-67
2022/11/01 07:24:53;;;;;;;139.35;91.40;;;;;;;30.62;39.96;98868.66;4890897;29;20091;-67
2022/11/01 07:27:41;;;;;;;138.80;88.55;;;;;;;30.73;41.96;98866.25;4880143;29;20072;-67
2022/11/01 07:30:33;;;;;;;151.70;89.63;;;;;;;30.69;39.61;98852.28;4872068;29;20064;-66
2022/11/01 07:33:15;;;;;;;145.18;90.68;;;;;;;30.71;42.31;98855.50;4878856;29;20044;-68
2022/11/01 07:36:11;;;;;;;140.23;91.00;;;;;;;30.61;40.46;98848.47;4890489;29;20350;-67
2022/11/01 07:38:46;;;;;;;141.25;90.65;;;;;;;29.99;41.11;98843.88;4890455;29;20508;-64
2022/11/01 07:41:34;;;;;;;151.90;91.18;;;;;;;30.51;41.96;98840.56;4885425;29;20073;-66
2022/11/01 07:44:17;;;;;;;152.98;91.22;;;;;;;30.14;41.47;98837.69;4885124;29;20143;-66
2022/11/01 07:47:05;;;;;;;155.52;95.55;;;;;;;29.63;42.51;98823.16;4890007;29;20151;-66
2022/11/01 07:49:49;;;;;;;169.27;94.40;;;;;;;29.80;42.42;98817.50;4859993;29;20068;-68
2022/11/01 07:52:37;;;;;;;166.52;98.82;;;;;;;29.65;43.14;98810.59;4871733;29;20118;-67
2022/11/01 07:55:20;;;;;;;176.70;103.85;;;;;;;29.19;43.63;98808.88;4874040;29;20055;-64
2022/11/01 07:58:16;;;;;;;167.75;97.15;;;;;;;30.02;44.33;98812.78;4883356;29;20434;-65
2022/11/01 08:00:51;;;;;;;171.18;100.90;;;;;;;29.68;43.64;98803.63;4872150;29;20089;-65
2022/11/01 08:03:39;;;;;;;172.85;102.05;;;;;;;29.88;43.51;98801.19;4882353;29;20064;-68
2022/11/01 08:06:22;;;;;;;164.30;99.40;;;;;;;30.13;43.29;98800.09;4870399;29;20120;-66
2022/11/01 08:09:10;;;;;;;173.90;103.32;;;;;;;29.42;43.92;98796.31;4870695;29;20418;-67
2022/11/01 08:11:53;;;;;;;175.23;102.57;;;;;;;29.60;43.55;98783.19;4890538;29;20489;-66
2022/11/01 08:14:41;;;;;;;161.77;102.95;;;;;;;30.12;42.99;98778.31;4887974;29;20052;-67
2022/11/01 08:17:31;;;;;;;176.45;105.07;;;;;;;29.98;42.68;98773.06;4874454;29;20049;-67
2022/11/01 08:20:26;;;;;;;163.93;104.35;;;;;;;30.17;42.03;98770.59;4874638;29;20065;-66
2022/11/01 08:23:02;;;;;;;180.95;105.78;;;;;;;30.18;42.19;98765.88;4856288;29;20057;-65
2022/11/01 08:25:51;;;;;;;166.98;106.63;;;;;;;30.29;41.83;98760.69;4860224;29;20732;-66
2022/11/01 08:28:34;;;;;;;176.18;107.10;;;;;;;30.12;42.81;98759.75;4860452;29;20049;-66
2022/11/01 08:31:22;;;;;;;183.82;108.95;;;;;;;30.28;43.51;98753.53;4872496;29;20052;-66
2022/11/01 08:34:12;;;;;;;187.88;114.38;;;;;;;29.85;42.83;98747.34;4855460;29;20521;-66
2022/11/01 08:36:57;;;;;;;176.63;110.18;;;;;;;29.74;43.61;98744.19;4863563;29;20064;-67
2022/11/01 08:39:46;;;;;;;184.60;113.53;;;;;;;29.97;43.69;98741.03;4884536;29;20061;-67
2022/11/01 08:42:27;;;;;;;195.75;114.75;;;;;;;29.39;45.25;98735.41;4872347;29;20041;-68
2022/11/01 08:45:17;;;;;;;199.27;114.97;;;;;;;29.84;44.64;98738.22;4888444;29;20434;-65
2022/11/01 08:48:00;;;;;;;209.25;116.75;;;;;;;30.01;44.46;98731.69;4873905;29;20045;-67
2022/11/01 08:50:49;;;;;;;193.75;117.18;;;;;;;29.83;44.71;98733.84;4874025;29;20450;-68
2022/11/01 08:53:30;;;;;;;193.00;116.28;;;;;;;30.05;44.91;98729.84;4873429;29;20053;-65
2022/11/01 08:56:20;;;;;;;221.02;125.95;;;;;;;29.61;44.75;98735.00;4875780;29;20121;-70
2022/11/01 08:59:02;;;;;;;212.60;128.18;;;;;;;30.01;45.13;98731.69;4873982;29;20549;-69
2022/11/01 09:01:52;;;;;;;201.20;124.15;;;;;;;30.44;44.74;98735.94;4874171;29;20052;-69
2022/11/01 09:04:33;;;;;;;229.65;137.10;;;;;;;29.91;45.22;98731.34;4875875;29;20055;-69
2022/11/01 09:07:23;;;;;;;231.90;136.60;;;;;;;29.82;45.21;98736.94;4874530;29;20057;-67
2022/11/01 09:10:05;;;;;;;227.40;138.15;;;;;;;30.30;46.37;98740.94;4874138;29;20056;-67
2022/11/01 09:12:55;;;;;;;232.73;142.10;;;;;;;30.19;45.04;98734.25;4872244;29;20057;-67
2022/11/01 09:15:37;;;;;;;241.65;151.60;;;;;;;30.09;45.79;98738.28;4877020;29;20052;-68
2022/11/01 09:18:26;;;;;;;243.45;152.27;;;;;;;30.10;45.04;98737.13;4873220;29;20061;-64
2022/11/01 09:21:08;;;;;;;255.35;157.20;;;;;;;30.00;45.51;98734.78;4872921;29;20048;-66
2022/11/01 09:23:57;;;;;;;258.63;155.85;;;;;;;30.12;45.99;98740.38;4878135;29;20060;-66
2022/11/01 09:26:40;;;;;;;257.40;160.70;;;;;;;30.14;45.93;98740.81;4875534;29;20136;-68
2022/11/01 09:29:29;;;;;;;265.30;159.23;;;;;;;30.13;45.33;98736.44;4872811;29;20079;-68
2022/11/01 09:32:10;;;;;;;257.42;158.13;;;;;;;29.94;45.45;98727.88;4871614;29;20048;-68
2022/11/01 09:35:00;;;;;;;251.73;157.05;;;;;;;29.94;45.58;98736.16;4874411;29;20121;-67
2022/11/01 09:37:42;;;;;;;265.88;156.90;;;;;;;30.38;44.81;98739.25;4872735;29;20045;-68
2022/11/01 09:40:37;;;;;;;254.63;153.85;;;;;;;30.36;46.96;98733.25;4871828;29;20137;-68
2022/11/01 09:43:22;;;;;;;254.18;155.25;;;;;;;29.95;47.12;98730.31;4873268;29;20052;-67
2022/11/01 09:46:14;;;;;;;251.35;150.82;;;;;;;29.82;46.87;98732.22;4871986;29;20057;-67
2022/11/01 09:49:01;;;;;;;240.05;145.73;;;;;;;30.04;46.98;98725.47;4871686;29;20148;-67
2022/11/01 09:51:50;;;;;;;227.30;141.70;;;;;;;29.60;48.25;98722.34;4872132;29;20758;-67
2022/11/01 09:54:33;;;;;;;227.82;137.40;;;;;;;29.70;49.04;98729.41;4870177;29;20054;-67
2022/11/01 09:57:42;;;;;;;235.23;141.40;;;;;;;29.47;49.12;98720.69;4869282;29;20453;-69
2022/11/01 10:00:24;;;;;;;227.80;137.90;;;;;;;29.37;49.62;98716.38;4869804;29;20076;-67
2022/11/01 10:03:32;;;;;;;215.48;136.35;;;;;;;29.74;50.12;98729.56;4871796;29;20049;-69
2022/11/01 10:06:23;;;;;;;226.77;142.13;;;;;;;29.40;50.65;98718.44;4881909;29;20053;-68
2022/11/01 10:09:20;;;;;;;226.23;139.25;;;;;;;29.88;50.55;98723.72;4885643;29;20049;-63
2022/11/01 10:12:34;;;;;;;231.25;141.88;;;;;;;29.84;51.22;98718.06;4874257;29;20439;-65
2022/11/01 10:15:38;;;;;;;232.43;141.40;;;;;;;29.40;52.06;98721.22;4873235;29;20056;-69
2022/11/01 10:18:44;;;;;;;229.45;145.65;;;;;;;29.46;51.37;98724.56;4871969;29;20075;-64
2022/11/01 10:21:41;;;;;;;239.65;150.57;;;;;;;29.31;51.95;98723.25;4873759;29;20067;-67
2022/11/01 10:24:36;;;;;;;238.80;151.38;;;;;;;29.55;54.88;98719.78;4871173;29;20048;-63
2022/11/01 10:27:37;;;;;;;250.25;148.77;;;;;;;29.43;53.26;98719.75;4871947;29;20045;-68
2022/11/01 10:30:32;;;;;;;230.27;147.90;;;;;;;29.47;53.10;98724.25;4872379;29;20478;-69
2022/11/01 10:33:56;;;;;;;239.07;153.02;;;;;;;29.39;52.79;98725.13;4869079;29;20063;-64
2022/11/01 10:36:51;;;;;;;231.73;143.98;;;;;;;28.97;54.85;98725.13;4856455;29;20048;-69
2022/11/01 10:40:18;;;;;;;223.45;143.88;;;;;;;29.02;54.04;98735.94;4870530;29;20140;-70
2022/11/01 10:42:54;;;;;;;218.38;140.05;;;;;;;29.11;53.78;98740.63;4865652;29;20354;-64
2022/11/01 10:45:45;;;;;;;209.13;130.98;;;;;;;29.20;54.08;98735.88;4871504;29;20104;-63
2022/11/01 10:48:48;;;;;;;203.48;127.22;;;;;;;29.18;55.34;98727.91;4871313;29;20072;-65
2022/11/01 10:51:40;;;;;;;206.73;123.72;;;;;;;29.02;55.69;98735.94;4874316;29;20482;-62
2022/11/01 10:54:31;;;;;;;199.43;123.32;;;;;;;28.92;55.12;98736.38;4874862;29;20056;-65
2022/11/01 10:57:45;;;;;;;174.52;113.55;;;;;;;28.55;55.51;98730.59;4870522;29;20044;-63
2022/11/01 11:00:22;;;;;;;174.57;108.50;;;;;;;28.59;56.15;98737.06;4872409;29;20049;-65
2022/11/01 11:03:31;;;;;;;172.52;109.85;;;;;;;28.40;55.86;98744.91;4872327;29;20049;-65
2022/11/01 11:06:21;;;;;;;171.10;102.93;;;;;;;28.50;56.41;98733.50;4871422;29;20144;-63
2022/11/01 11:09:04;;;;;;;162.18;103.03;;;;;;;28.47;55.80;98734.97;4869971;29;20068;-67
2022/11/01 11:11:56;;;;;;;158.00;98.70;;;;;;;28.49;55.50;98731.88;4864140;29;20052;-66
2022/11/01 11:14:40;;;;;;;159.60;97.32;;;;;;;28.45;56.23;98741.97;4883366;29;20499;-66
2022/11/01 11:17:34;;;;;;;153.20;99.40;;;;;;;28.09;55.74;98735.78;4873291;29;20439;-66
2022/11/01 11:20:23;;;;;;;157.75;96.15;;;;;;;28.36;56.17;98739.25;4869678;29;20057;-65
2022/11/01 11:23:16;;;;;;;151.98;96.88;;;;;;;28.33;56.06;98739.09;4884636;29;20119;-67
2022/11/01 11:26:04;;;;;;;158.50;96.57;;;;;;;28.15;56.56;98743.88;4873930;29;20053;-65
2022/11/01 11:28:59;;;;;;;158.85;97.00;;;;;;;28.05;56.06;98747.78;4869397;29;20076;-66
2022/11/01 11:31:41;;;;;;;164.35;98.03;;;;;;;28.10;56.12;98748.41;4874882;29;20075;-67
2022/11/01 11:34:39;;;;;;;161.05;98.18;;;;;;;28.08;55.87;98744.38;4889085;29;20056;-65
2022/11/01 11:37:29;;;;;;;163.32;99.57;;;;;;;28.14;55.82;98754.09;4870919;29;20121;-63
2022/11/01 11:40:24;;;;;;;163.35;101.45;;;;;;;27.91;55.97;98748.78;4874722;29;20061;-64
2022/11/01 11:43:40;;;;;;;155.98;98.57;;;;;;;28.02;54.72;98749.28;4871265;29;20064;-65
2022/11/01 11:46:24;;;;;;;166.90;99.35;;;;;;;27.87;55.41;98747.81;4886629;29;20080;-65
2022/11/01 11:49:26;;;;;;;179.90;98.63;;;;;;;27.94;56.56;98757.59;4889076;29;20167;-66
2022/11/01 11:52:07;;;;;;;158.55;98.90;;;;;;;27.59;56.31;98749.31;4894248;29;20552;-60
2022/11/01 11:54:57;;;;;;;158.00;97.10;;;;;;;27.86;57.04;98748.97;4875576;29;20045;-63
2022/11/01 11:57:39;;;;;;;167.55;98.60;;;;;;;27.86;56.44;98748.13;4893581;29;20135;-64
2022/11/01 12:00:31;;;;;;;158.93;93.95;;;;;;;27.82;57.08;98753.53;4879075;29;20052;-63
2022/11/01 12:03:17;;;;;;;159.50;93.60;;;;;;;27.81;58.17;98757.41;4874198;29;20172;-63
2022/11/01 12:06:13;;;;;;;161.48;94.93;;;;;;;27.49;57.26;98759.53;4876485;29;20560;-65
2022/11/01 12:08:54;;;;;;;160.32;95.63;;;;;;;27.59;57.13;98763.09;4876943;29;20053;-64
2022/11/01 12:11:46;;;;;;;156.75;94.28;;;;;;;27.63;58.07;98766.81;4893038;29;20056;-62
2022/11/01 12:14:30;;;;;;;169.90;95.80;;;;;;;27.54;58.48;98764.88;4892822;29;20338;-63
2022/11/01 12:17:30;;;;;;;159.32;95.97;;;;;;;27.56;59.94;98767.31;4892107;29;20167;-62
2022/11/01 12:20:32;;;;;;;148.20;94.97;;;;;;;27.46;59.30;98768.47;4875593;29;20053;-62
2022/11/01 12:23:37;;;;;;;158.23;94.93;;;;;;;27.42;58.80;98773.03;4870823;29;20053;-64
2022/11/01 12:26:29;;;;;;;158.63;93.97;;;;;;;27.35;59.70;98772.69;4874504;29;20048;-66
2022/11/01 12:29:30;;;;;;;154.68;91.43;;;;;;;27.27;59.94;98770.75;4874024;29;20045;-64
2022/11/01 12:32:26;;;;;;;173.52;93.53;;;;;;;27.19;60.24;98790.78;4872513;29;20044;-66
2022/11/01 12:35:09;;;;;;;148.50;89.20;;;;;;;27.14;60.64;98797.28;4875588;29;20071;-67
2022/11/01 12:38:34;;;;;;;155.50;86.68;;;;;;;27.19;60.42;98796.28;4870888;29;20733;-64
2022/11/01 12:41:37;;;;;;;147.02;84.20;;;;;;;27.19;60.70;98796.28;4872807;29;20132;-66
2022/11/01 12:44:36;;;;;;;137.00;83.65;;;;;;;27.13;61.39;98799.22;4872703;29;20142;-63
2022/11/01 12:47:54;;;;;;;145.52;83.68;;;;;;;27.09;61.58;98805.69;4872089;29;20064;-63
2022/11/01 12:50:57;;;;;;;138.63;81.63;;;;;;;27.12;61.74;98805.84;4858740;29;20057;-64
2022/11/01 12:53:48;;;;;;;133.75;80.43;;;;;;;27.19;62.09;98815.56;4872494;29;20072;-63
2022/11/01 12:56:38;;;;;;;138.13;80.30;;;;;;;27.02;61.26;98819.94;4870160;29;20494;-64